createdAt,value
2024-05-09T00:01:49.772Z,14.47
2024-05-09T00:04:37.671Z,14.47
2024-05-09T00:07:24.577Z,14.46
2024-05-09T00:10:18.282Z,14.45
2024-05-09T00:13:11.869Z,14.46
2024-05-09T00:15:59.484Z,14.47
2024-05-09T00:18:45.967Z,14.47
2024-05-09T00:21:32.686Z,14.48
2024-05-09T00:24:21.547Z,14.51
2024-05-09T00:27:09.042Z,14.51
2024-05-09T00:29:57.007Z,14.52
2024-05-09T00:32:43.879Z,14.52
2024-05-09T00:35:30.771Z,14.53
2024-05-09T00:38:17.903Z,14.57
2024-05-09T00:41:04.228Z,14.57
2024-05-09T00:43:51.679Z,14.56
2024-05-09T00:46:38.706Z,14.54
2024-05-09T00:49:26.815Z,14.53
2024-05-09T00:52:13.617Z,14.55
2024-05-09T00:55:01.021Z,14.57
2024-05-09T00:57:47.979Z,14.59
2024-05-09T01:00:39.354Z,14.61
2024-05-09T01:03:28.077Z,14.65
2024-05-09T01:06:15.011Z,14.66
2024-05-09T01:09:02.099Z,14.67
2024-05-09T01:11:48.693Z,14.70
2024-05-09T01:14:37.334Z,14.72
2024-05-09T01:17:25.288Z,14.74
2024-05-09T01:20:19.876Z,14.76
2024-05-09T01:23:11.190Z,14.79
2024-05-09T01:25:58.576Z,14.79
2024-05-09T01:28:45.366Z,14.77
2024-05-09T01:31:32.123Z,14.75
2024-05-09T01:34:19.055Z,14.72
2024-05-09T01:37:05.786Z,14.70
2024-05-09T01:39:52.521Z,14.67
2024-05-09T01:42:39.259Z,14.66
2024-05-09T01:45:25.916Z,14.65
2024-05-09T01:48:12.803Z,14.62
2024-05-09T01:51:00.156Z,14.62
2024-05-09T01:53:47.057Z,14.59
2024-05-09T01:56:33.564Z,14.56
2024-05-09T01:59:20.405Z,14.53
2024-05-09T02:02:07.714Z,14.50
2024-05-09T02:04:54.253Z,14.48
2024-05-09T02:07:40.923Z,14.46
2024-05-09T02:10:32.477Z,14.42
2024-05-09T02:13:20.073Z,14.39
2024-05-09T02:16:14.828Z,14.37
2024-05-09T02:19:02.042Z,14.36
2024-05-09T02:21:48.840Z,14.34
2024-05-09T02:24:35.742Z,14.30
2024-05-09T02:27:22.079Z,14.28
2024-05-09T02:30:18.719Z,14.21
2024-05-09T02:33:14.391Z,14.18
2024-05-09T02:36:03.211Z,14.16
2024-05-09T02:38:49.831Z,14.15
2024-05-09T02:41:36.773Z,14.15
2024-05-09T02:44:23.583Z,14.14
2024-05-09T02:47:10.681Z,14.14
2024-05-09T02:49:57.822Z,14.11
2024-05-09T02:52:44.785Z,14.09
2024-05-09T02:55:31.625Z,14.08
2024-05-09T02:58:18.369Z,14.09
2024-05-09T03:01:05.136Z,14.12
2024-05-09T03:03:52.375Z,14.15
2024-05-09T03:06:42.964Z,14.15
2024-05-09T03:09:29.393Z,14.18
2024-05-09T03:12:19.996Z,14.20
2024-05-09T03:15:07.021Z,14.19
2024-05-09T03:17:53.525Z,14.19
2024-05-09T03:20:43.821Z,14.17
2024-05-09T03:23:30.686Z,14.17
2024-05-09T03:26:18.718Z,14.17
2024-05-09T03:29:06.166Z,14.18
2024-05-09T03:31:53.017Z,14.18
2024-05-09T03:34:40.057Z,14.17
2024-05-09T03:37:26.826Z,14.18
2024-05-09T03:40:20.482Z,14.21
2024-05-09T03:43:10.522Z,14.27
2024-05-09T03:45:58.108Z,14.30
2024-05-09T03:48:45.127Z,14.35
2024-05-09T03:51:31.980Z,14.41
2024-05-09T03:54:18.738Z,14.45
2024-05-09T03:57:05.357Z,14.47
2024-05-09T03:59:52.675Z,14.51
2024-05-09T04:02:47.624Z,14.52
2024-05-09T04:05:34.974Z,14.54
2024-05-09T04:08:21.876Z,14.58
2024-05-09T04:11:11.192Z,14.64
2024-05-09T04:13:58.615Z,14.69
2024-05-09T04:16:45.435Z,14.75
2024-05-09T04:19:32.036Z,14.78
2024-05-09T04:22:19.547Z,14.83
2024-05-09T04:25:06.398Z,14.85
2024-05-09T04:27:55.770Z,14.93
2024-05-09T04:30:43.229Z,14.98
2024-05-09T04:33:30.715Z,15.06
2024-05-09T04:36:17.241Z,15.08
2024-05-09T04:39:04.276Z,15.11
2024-05-09T04:41:53.353Z,15.14
2024-05-09T04:44:43.566Z,15.15
2024-05-09T04:47:30.634Z,15.16
2024-05-09T04:53:28.029Z,15.17
2024-05-09T04:56:17.193Z,15.22
2024-05-09T05:02:28.607Z,15.24
2024-05-09T05:05:28.049Z,15.26
2024-05-09T05:08:47.135Z,15.25
2024-05-09T05:11:35.173Z,15.24
2024-05-09T05:14:24.512Z,15.20
2024-05-09T05:17:13.162Z,15.17
2024-05-09T05:20:02.400Z,15.21
2024-05-09T05:22:49.402Z,15.21
2024-05-09T05:25:37.201Z,15.26
2024-05-09T05:28:24.334Z,15.29
2024-05-09T05:31:11.084Z,15.34
2024-05-09T05:33:58.320Z,15.37
2024-05-09T05:36:45.521Z,15.41
2024-05-09T05:39:32.275Z,15.46
2024-05-09T05:42:19.063Z,15.49
2024-05-09T05:45:09.911Z,15.51
2024-05-09T05:47:57.230Z,15.54
2024-05-09T05:50:44.463Z,15.59
2024-05-09T05:53:31.795Z,15.65
2024-05-09T05:56:18.558Z,15.69
2024-05-09T05:59:05.618Z,15.71
2024-05-09T06:01:52.432Z,15.73
2024-05-09T06:04:39.868Z,15.76
2024-05-09T06:07:26.996Z,15.75
2024-05-09T06:10:21.017Z,15.80
2024-05-09T06:13:15.670Z,15.88
2024-05-09T06:16:06.027Z,15.96
2024-05-09T06:18:53.346Z,16.01
2024-05-09T06:21:40.124Z,16.08
2024-05-09T06:24:27.996Z,16.10
2024-05-09T06:27:14.793Z,16.19
2024-05-09T06:30:02.565Z,16.23
2024-05-09T06:32:49.764Z,16.25
2024-05-09T06:35:40.210Z,16.25
2024-05-09T06:38:28.407Z,16.28
2024-05-09T06:41:17.232Z,16.37
2024-05-09T06:44:16.323Z,16.49
2024-05-09T06:47:03.819Z,16.58
2024-05-09T06:50:27.911Z,16.76
2024-05-09T06:53:42.600Z,16.91
2024-05-09T06:56:29.895Z,16.96
2024-05-09T06:59:22.574Z,17.01
2024-05-09T07:02:19.999Z,17.14
2024-05-09T07:05:17.903Z,17.28
2024-05-09T07:08:26.324Z,17.43
2024-05-09T07:11:41.843Z,17.50
2024-05-09T07:14:49.187Z,17.51
2024-05-09T07:18:18.347Z,17.58
2024-05-09T07:21:07.211Z,17.64
2024-05-09T07:24:17.966Z,17.49
2024-05-09T07:27:16.876Z,17.32
2024-05-09T07:30:33.317Z,17.20
2024-05-09T07:33:41.386Z,17.05
2024-05-09T07:36:30.070Z,16.98
2024-05-09T07:42:41.995Z,16.72
2024-05-09T07:45:51.715Z,16.60
2024-05-09T07:53:17.149Z,16.51
2024-05-09T07:55:06.844Z,16.39
2024-05-09T08:01:47.352Z,16.30
2024-05-09T08:04:47.839Z,16.27
2024-05-09T08:07:50.488Z,16.24
2024-05-09T08:10:56.443Z,16.13
2024-05-09T08:13:45.540Z,16.09
2024-05-09T08:16:54.852Z,16.08
2024-05-09T08:19:42.444Z,16.10
2024-05-09T08:25:53.694Z,16.22
2024-05-09T08:28:40.966Z,16.34
2024-05-09T08:31:41.182Z,16.38
2024-05-09T08:34:35.217Z,16.33
2024-05-09T08:37:38.757Z,16.30
2024-05-09T08:40:37.503Z,16.19
2024-05-09T08:43:38.999Z,16.14
2024-05-09T08:46:33.447Z,16.08
2024-05-09T08:49:29.935Z,16.10
2024-05-09T08:52:17.975Z,16.05
2024-05-09T08:55:08.505Z,15.99
2024-05-09T08:58:02.210Z,16.05
2024-05-09T09:00:49.702Z,16.09
2024-05-09T09:03:38.663Z,16.14
2024-05-09T09:06:27.642Z,16.19
2024-05-09T09:09:14.851Z,16.16
2024-05-09T09:12:11.885Z,16.20
2024-05-09T09:15:03.644Z,16.26
2024-05-09T09:18:11.576Z,16.24
2024-05-09T09:24:13.674Z,16.06
2024-05-09T09:27:05.232Z,16.08
2024-05-09T09:29:52.000Z,16.03
2024-05-09T09:32:38.767Z,16.11
2024-05-09T09:35:35.831Z,16.18
2024-05-09T09:39:16.638Z,16.39
2024-05-09T09:42:05.242Z,16.44
2024-05-09T09:45:02.094Z,16.52
2024-05-09T09:48:10.750Z,16.58
2024-05-09T09:51:14.002Z,16.62
2024-05-09T09:54:08.776Z,16.63
2024-05-09T09:57:06.028Z,16.70
2024-05-09T10:00:11.592Z,16.73
2024-05-09T10:03:02.530Z,16.75
2024-05-09T10:05:49.933Z,16.77
2024-05-09T10:08:37.919Z,16.81
2024-05-09T10:11:29.575Z,16.87
2024-05-09T10:14:23.513Z,16.90
2024-05-09T10:17:11.450Z,16.96
2024-05-09T10:20:14.807Z,17.06
2024-05-09T10:23:35.297Z,17.16
2024-05-09T10:26:41.971Z,17.14
2024-05-09T10:29:29.111Z,17.19
2024-05-09T10:35:33.652Z,17.21
2024-05-09T10:38:21.443Z,17.31
2024-05-09T10:41:11.176Z,17.35
2024-05-09T10:43:57.658Z,17.36
2024-05-09T10:47:03.631Z,17.46
2024-05-09T10:50:15.446Z,17.52
2024-05-09T10:53:11.929Z,17.66
2024-05-09T10:56:07.117Z,17.82
2024-05-09T10:58:58.293Z,17.99
2024-05-09T11:02:29.216Z,18.11
2024-05-09T11:05:16.532Z,18.24
2024-05-09T11:08:03.916Z,18.31
2024-05-09T11:10:52.780Z,18.42
2024-05-09T11:13:42.689Z,18.59
2024-05-09T11:16:29.518Z,18.80
2024-05-09T11:19:19.724Z,19.05
2024-05-09T11:22:07.810Z,19.28
2024-05-09T11:24:56.644Z,19.44
2024-05-09T11:27:43.845Z,19.64
2024-05-09T11:30:35.230Z,19.79
2024-05-09T11:33:21.991Z,19.92
2024-05-09T11:36:09.810Z,19.92
2024-05-09T11:38:56.235Z,19.94
2024-05-09T11:41:42.781Z,19.99
2024-05-09T11:44:29.432Z,20.05
2024-05-09T11:50:48.409Z,19.95
2024-05-09T11:53:35.241Z,19.93
2024-05-09T11:56:22.173Z,19.98
2024-05-09T11:59:09.474Z,20.00
2024-05-09T12:01:56.162Z,19.95
2024-05-09T12:04:43.080Z,19.94
2024-05-09T12:07:30.844Z,19.99
2024-05-09T12:10:22.267Z,19.89
2024-05-09T12:13:12.658Z,19.78
2024-05-09T12:16:37.782Z,19.71
2024-05-09T12:19:27.697Z,19.70
2024-05-09T12:22:14.668Z,19.66
2024-05-09T12:25:04.624Z,19.53
2024-05-09T12:27:53.053Z,19.56
2024-05-09T12:30:41.554Z,19.58
2024-05-09T12:33:29.891Z,19.60
2024-05-09T12:36:16.665Z,19.65
2024-05-09T12:39:06.157Z,19.62
2024-05-09T12:41:52.576Z,19.58
2024-05-09T12:44:40.703Z,19.54
2024-05-09T12:47:27.693Z,19.48
2024-05-09T12:50:25.236Z,19.47
2024-05-09T12:53:18.284Z,19.51
2024-05-09T12:56:07.217Z,19.51
2024-05-09T13:02:37.267Z,19.38
2024-05-09T13:05:30.106Z,19.36
2024-05-09T13:08:17.943Z,19.39
2024-05-09T13:11:08.452Z,19.40
2024-05-09T13:14:10.475Z,19.37
2024-05-09T13:16:57.300Z,19.35
2024-05-09T13:19:44.254Z,19.34
2024-05-09T13:22:31.028Z,19.28
2024-05-09T13:25:17.767Z,19.35
2024-05-09T13:28:06.710Z,19.42
2024-05-09T13:30:54.139Z,19.48
2024-05-09T13:33:40.837Z,19.47
2024-05-09T13:36:27.423Z,19.52
2024-05-09T13:39:14.764Z,19.49
2024-05-09T13:42:01.609Z,19.52
2024-05-09T13:44:48.385Z,19.70
2024-05-09T13:47:35.365Z,20.09
2024-05-09T13:50:30.951Z,20.65
2024-05-09T13:53:21.838Z,21.23
2024-05-09T13:56:08.939Z,21.30
2024-05-09T13:58:55.699Z,20.88
2024-05-09T14:01:42.513Z,20.47
2024-05-09T14:04:31.004Z,20.18
2024-05-09T14:07:17.830Z,20.05
2024-05-09T14:10:09.024Z,19.91
2024-05-09T14:12:58.301Z,19.88
2024-05-09T14:15:46.143Z,19.89
2024-05-09T14:18:33.048Z,19.94
2024-05-09T14:21:20.081Z,20.53
2024-05-09T14:24:06.967Z,21.51
2024-05-09T14:26:53.711Z,22.40
2024-05-09T14:29:40.496Z,23.32
2024-05-09T14:32:27.369Z,24.00
2024-05-09T14:35:16.329Z,24.56
2024-05-09T14:38:04.003Z,24.74
2024-05-09T14:40:58.173Z,25.13
2024-05-09T14:44:12.464Z,25.10
2024-05-09T14:46:59.655Z,24.37
2024-05-09T14:49:47.016Z,23.51
2024-05-09T14:52:33.804Z,23.57
2024-05-09T14:55:20.423Z,24.04
2024-05-09T14:58:08.338Z,23.81
2024-05-09T15:00:56.489Z,23.07
2024-05-09T15:03:43.494Z,22.64
2024-05-09T15:06:30.139Z,22.38
2024-05-09T15:25:26.974Z,20.02
2024-05-09T15:28:58.799Z,19.88
2024-05-09T15:32:40.457Z,19.72
